Time;durP1;ratioP1;P1;durP2;ratioP2;P2;SDS_P1;SDS_P2;PMS_P1;PMS_P2;Temp;Humidity;BMP_temperature;BMP_pressure;BME280_temperature;BME280_humidity;BME280_pressure;Samples;Min_cycle;Max_cycle;Signal;HPM_P1;HPM_P2
2023/03/29 00:01:29;;;;;;;13.45;7.32;;;;;;;;;;5077273;28;20791;-60
2023/03/29 00:03:59;;;;;;;14.10;7.32;;;;;;;;;;5077309;28;20611;-60
2023/03/29 00:06:31;;;;;;;14.10;7.45;;;;;;;;;;5077392;28;20315;-60
2023/03/29 00:09:00;;;;;;;14.55;7.57;;;;;;;;;;5077591;28;20212;-60
2023/03/29 00:11:28;;;;;;;13.45;7.25;;;;;;;;;;5077107;28;20228;-60
2023/03/29 00:13:55;;;;;;;13.45;7.20;;;;;;;;;;5076957;28;20599;-60
2023/03/29 00:16:23;;;;;;;14.68;7.22;;;;;;;;;;5077336;28;20205;-60
2023/03/29 00:18:50;;;;;;;12.98;7.00;;;;;;;;;;5077130;28;20622;-60
2023/03/29 00:21:19;;;;;;;12.35;7.07;;;;;;;;;;5077358;28;20250;-60
2023/03/29 00:23:46;;;;;;;11.05;6.60;;;;;;;;;;5077139;28;20604;-60
2023/03/29 00:26:14;;;;;;;13.18;6.82;;;;;;;;;;5077362;28;20598;-60
2023/03/29 00:28:41;;;;;;;12.90;6.43;;;;;;;;;;5077470;28;20204;-60
2023/03/29 00:31:09;;;;;;;13.00;6.50;;;;;;;;;;5076990;28;20235;-60
2023/03/29 00:33:37;;;;;;;10.25;6.35;;;;;;;;;;5077143;28;20203;-60
2023/03/29 00:36:04;;;;;;;11.80;6.30;;;;;;;;;;5077162;28;20277;-60
2023/03/29 00:38:33;;;;;;;10.90;6.57;;;;;;;;;;5076914;28;20204;-60
2023/03/29 00:41:01;;;;;;;10.85;6.10;;;;;;;;;;5076707;28;20486;-60
2023/03/29 00:43:28;;;;;;;10.63;5.93;;;;;;;;;;5077331;28;20216;-60
2023/03/29 00:45:56;;;;;;;11.60;6.15;;;;;;;;;;5077215;28;20205;-60
2023/03/29 00:48:24;;;;;;;10.02;6.05;;;;;;;;;;5077158;28;20205;-60
2023/03/29 00:50:54;;;;;;;11.25;5.93;;;;;;;;;;5076974;28;20270;-60
2023/03/29 00:53:25;;;;;;;10.43;6.07;;;;;;;;;;5076978;28;20212;-60
2023/03/29 00:55:56;;;;;;;9.43;5.57;;;;;;;;;;5076705;28;20247;-60
2023/03/29 00:58:25;;;;;;;9.20;5.40;;;;;;;;;;5079013;28;20205;-60
2023/03/29 01:00:56;;;;;;;9.02;5.35;;;;;;;;;;5080678;28;20539;-60
2023/03/29 01:03:28;;;;;;;8.57;5.18;;;;;;;;;;5081077;28;20270;-60
2023/03/29 01:05:58;;;;;;;9.57;5.75;;;;;;;;;;5080472;28;20290;-60
2023/03/29 01:08:27;;;;;;;8.38;4.85;;;;;;;;;;5080896;28;20243;-60
2023/03/29 01:10:59;;;;;;;10.07;5.55;;;;;;;;;;5080514;28;20208;-60
2023/03/29 01:13:34;;;;;;;7.80;4.78;;;;;;;;;;5080361;28;20201;-60
2023/03/29 01:16:02;;;;;;;7.75;5.05;;;;;;;;;;5080264;28;20219;-60
2023/03/29 01:18:30;;;;;;;10.07;5.07;;;;;;;;;;5080461;28;20254;-61
2023/03/29 01:21:11;;;;;;;9.02;5.35;;;;;;;;;;5080624;28;20247;-60
2023/03/29 01:23:53;;;;;;;8.73;4.63;;;;;;;;;;5080283;28;20212;-60
2023/03/29 01:26:25;;;;;;;6.55;4.07;;;;;;;;;;5036785;28;20211;-60
2023/03/29 01:28:58;;;;;;;8.40;5.15;;;;;;;;;;5079618;28;20549;-60
2023/03/29 01:31:27;;;;;;;8.43;4.70;;;;;;;;;;5080124;28;20244;-60
2023/03/29 01:33:59;;;;;;;7.55;4.38;;;;;;;;;;5080044;28;20592;-59
2023/03/29 01:36:29;;;;;;;7.35;4.30;;;;;;;;;;5080028;28;20204;-59
2023/03/29 01:38:57;;;;;;;7.18;4.40;;;;;;;;;;5079916;28;20208;-59
2023/03/29 01:41:28;;;;;;;8.13;4.63;;;;;;;;;;5080166;28;20486;-59
2023/03/29 01:43:58;;;;;;;7.47;4.40;;;;;;;;;;5080151;28;20217;-59
2023/03/29 01:46:30;;;;;;;7.07;4.38;;;;;;;;;;5079757;28;20208;-59
2023/03/29 01:49:00;;;;;;;7.40;3.90;;;;;;;;;;5080010;28;20266;-59
2023/03/29 01:51:31;;;;;;;6.72;4.28;;;;;;;;;;5079789;28;20204;-59
2023/03/29 01:54:01;;;;;;;6.20;3.75;;;;;;;;;;5079749;28;20235;-59
2023/03/29 01:56:30;;;;;;;6.18;3.90;;;;;;;;;;5079723;28;20225;-59
2023/03/29 01:59:03;;;;;;;6.63;4.18;;;;;;;;;;5079661;28;20212;-59
2023/03/29 02:01:32;;;;;;;6.15;4.10;;;;;;;;;;5079296;28;20236;-59
2023/03/29 02:04:01;;;;;;;7.43;4.07;;;;;;;;;;5079758;28;20212;-59
2023/03/29 02:06:30;;;;;;;6.90;3.85;;;;;;;;;;5079359;28;20208;-59
2023/03/29 02:08:58;;;;;;;6.05;3.85;;;;;;;;;;5079412;28;20215;-59
2023/03/29 02:11:25;;;;;;;4.93;3.65;;;;;;;;;;5079333;28;21031;-59
2023/03/29 02:13:53;;;;;;;5.68;3.65;;;;;;;;;;5079093;28;20204;-59
2023/03/29 02:16:22;;;;;;;6.22;3.80;;;;;;;;;;5078575;28;20220;-59
2023/03/29 02:18:51;;;;;;;5.18;3.33;;;;;;;;;;5078912;28;20583;-59
2023/03/29 02:21:22;;;;;;;5.38;3.33;;;;;;;;;;5078424;28;20204;-59
2023/03/29 02:23:50;;;;;;;5.63;3.70;;;;;;;;;;5079120;28;20208;-59
2023/03/29 02:26:18;;;;;;;5.28;3.80;;;;;;;;;;5079225;28;20216;-59
2023/03/29 02:28:45;;;;;;;5.80;3.70;;;;;;;;;;5079114;28;20278;-59
2023/03/29 02:31:17;;;;;;;5.13;3.50;;;;;;;;;;5078992;28;20212;-59
2023/03/29 02:33:50;;;;;;;5.50;3.20;;;;;;;;;;5079064;28;20232;-59
2023/03/29 02:36:19;;;;;;;5.45;3.42;;;;;;;;;;5079197;28;20651;-59
2023/03/29 02:38:47;;;;;;;4.50;3.17;;;;;;;;;;5078878;28;20204;-59
2023/03/29 02:41:15;;;;;;;4.97;3.25;;;;;;;;;;5078765;28;20204;-59
2023/03/29 02:43:43;;;;;;;4.13;2.90;;;;;;;;;;5078480;28;20295;-59
2023/03/29 02:46:11;;;;;;;4.60;3.00;;;;;;;;;;5078510;28;20495;-59
2023/03/29 02:48:39;;;;;;;4.03;3.03;;;;;;;;;;5078790;28;20204;-59
2023/03/29 02:51:10;;;;;;;4.07;2.42;;;;;;;;;;5078567;28;20212;-59
2023/03/29 02:53:40;;;;;;;4.95;3.28;;;;;;;;;;5078230;28;20238;-59
2023/03/29 02:56:09;;;;;;;3.60;2.63;;;;;;;;;;5077822;28;20231;-59
2023/03/29 02:58:37;;;;;;;4.00;3.20;;;;;;;;;;5077715;28;20212;-59
2023/03/29 03:01:05;;;;;;;4.10;2.70;;;;;;;;;;5077955;28;20270;-59
2023/03/29 03:03:32;;;;;;;5.55;2.88;;;;;;;;;;5078449;28;20304;-59
2023/03/29 03:06:00;;;;;;;3.72;2.65;;;;;;;;;;5078013;28;20212;-59
2023/03/29 03:08:29;;;;;;;3.22;2.83;;;;;;;;;;5077834;28;20239;-59
2023/03/29 03:10:58;;;;;;;4.15;2.60;;;;;;;;;;5078006;28;20251;-59
2023/03/29 03:13:25;;;;;;;4.18;2.50;;;;;;;;;;5077995;28;20228;-59
2023/03/29 03:15:53;;;;;;;3.20;2.75;;;;;;;;;;5078200;28;20230;-59
2023/03/29 03:18:20;;;;;;;3.85;2.60;;;;;;;;;;5077762;28;20592;-60
2023/03/29 03:20:55;;;;;;;2.85;2.17;;;;;;;;;;5077119;28;20211;-60
2023/03/29 03:23:22;;;;;;;3.22;2.50;;;;;;;;;;5077937;28;20266;-59
2023/03/29 03:25:52;;;;;;;3.85;2.40;;;;;;;;;;5077488;28;20216;-59
2023/03/29 03:28:20;;;;;;;3.15;2.22;;;;;;;;;;5077886;28;20215;-61
2023/03/29 03:30:48;;;;;;;2.67;2.22;;;;;;;;;;5077548;28;20204;-61
2023/03/29 03:33:15;;;;;;;3.03;2.20;;;;;;;;;;5077365;28;20319;-61
2023/03/29 03:35:45;;;;;;;3.38;2.40;;;;;;;;;;5077660;28;20283;-59
2023/03/29 03:38:12;;;;;;;2.55;2.17;;;;;;;;;;5077613;28;20204;-61
2023/03/29 03:40:39;;;;;;;3.80;2.40;;;;;;;;;;5077007;28;20204;-59
2023/03/29 03:43:08;;;;;;;2.65;2.20;;;;;;;;;;5077241;28;20200;-61
2023/03/29 03:45:36;;;;;;;3.28;2.10;;;;;;;;;;5059787;28;20204;-61
2023/03/29 03:48:03;;;;;;;2.53;2.30;;;;;;;;;;5077203;28;20208;-61
2023/03/29 03:50:30;;;;;;;3.10;2.30;;;;;;;;;;5077287;28;20204;-59
2023/03/29 03:52:58;;;;;;;2.40;2.03;;;;;;;;;;5076867;28;20510;-59
2023/03/29 03:55:28;;;;;;;2.08;1.88;;;;;;;;;;5076270;28;20235;-60
2023/03/29 03:57:56;;;;;;;2.58;1.92;;;;;;;;;;5077106;28;20642;-62
2023/03/29 04:00:25;;;;;;;2.25;2.05;;;;;;;;;;5077423;28;20242;-61
2023/03/29 04:02:55;;;;;;;2.53;2.15;;;;;;;;;;5077318;28;20208;-61
2023/03/29 04:05:22;;;;;;;2.78;2.20;;;;;;;;;;5076980;28;20209;-60
2023/03/29 04:07:51;;;;;;;2.75;2.33;;;;;;;;;;5076441;28;20204;-60
2023/03/29 04:10:19;;;;;;;2.55;2.08;;;;;;;;;;5076494;28;20211;-59
2023/03/29 04:12:46;;;;;;;2.92;1.98;;;;;;;;;;5076483;28;20460;-59
2023/03/29 04:15:16;;;;;;;2.25;2.05;;;;;;;;;;5076808;28;20204;-61
2023/03/29 04:17:45;;;;;;;2.53;2.15;;;;;;;;;;5076899;28;20207;-59
2023/03/29 04:20:12;;;;;;;2.05;1.75;;;;;;;;;;5076695;28;20204;-59
2023/03/29 04:22:41;;;;;;;2.50;2.03;;;;;;;;;;5076254;28;20643;-61
2023/03/29 04:25:09;;;;;;;2.30;1.85;;;;;;;;;;5076742;28;20204;-61
2023/03/29 04:27:36;;;;;;;3.28;1.90;;;;;;;;;;5076514;28;20211;-59
2023/03/29 04:30:04;;;;;;;2.03;1.70;;;;;;;;;;5076123;28;20216;-60
2023/03/29 04:32:31;;;;;;;2.47;1.63;;;;;;;;;;5078753;28;20239;-61
2023/03/29 04:35:00;;;;;;;2.03;1.77;;;;;;;;;;5080629;28;20204;-60
2023/03/29 04:37:28;;;;;;;2.20;1.90;;;;;;;;;;5080267;28;20208;-60
2023/03/29 04:39:56;;;;;;;2.42;2.03;;;;;;;;;;5079723;28;20231;-60
2023/03/29 04:42:23;;;;;;;1.83;1.70;;;;;;;;;;5080049;28;20213;-59
2023/03/29 04:44:52;;;;;;;2.30;1.88;;;;;;;;;;5079393;28;20212;-59
2023/03/29 04:47:20;;;;;;;1.98;1.75;;;;;;;;;;5079439;28;20223;-59
2023/03/29 04:49:47;;;;;;;2.28;1.92;;;;;;;;;;5079834;28;20887;-59
2023/03/29 04:52:16;;;;;;;1.98;1.77;;;;;;;;;;5079629;28;20482;-59
2023/03/29 04:54:43;;;;;;;1.90;1.60;;;;;;;;;;5079484;28;20727;-59
2023/03/29 04:57:10;;;;;;;1.85;1.58;;;;;;;;;;5078958;28;20320;-59
2023/03/29 04:59:37;;;;;;;2.22;1.70;;;;;;;;;;5078978;28;20212;-61
2023/03/29 05:02:06;;;;;;;1.95;1.70;;;;;;;;;;5078609;28;20217;-59
2023/03/29 05:04:33;;;;;;;2.08;1.85;;;;;;;;;;5078138;28;20203;-61
2023/03/29 05:07:01;;;;;;;3.20;1.88;;;;;;;;;;5078081;28;20204;-61
2023/03/29 05:09:29;;;;;;;2.42;2.10;;;;;;;;;;5078314;28;20310;-60
2023/03/29 05:11:57;;;;;;;2.85;2.03;;;;;;;;;;5077979;28;20204;-59
2023/03/29 05:14:24;;;;;;;2.72;1.95;;;;;;;;;;5078248;28;20228;-59
2023/03/29 05:16:51;;;;;;;2.22;1.80;;;;;;;;;;5077473;28;20235;-59
2023/03/29 05:19:20;;;;;;;2.80;1.63;;;;;;;;;;5077570;28;20228;-61
2023/03/29 05:21:48;;;;;;;2.03;1.70;;;;;;;;;;5077432;28;20208;-60
2023/03/29 05:24:16;;;;;;;2.00;1.80;;;;;;;;;;5077625;28;20230;-59
2023/03/29 05:26:46;;;;;;;1.70;1.60;;;;;;;;;;5077494;28;20710;-61
2023/03/29 05:29:13;;;;;;;2.67;1.92;;;;;;;;;;5076147;28;20811;-59
2023/03/29 05:31:41;;;;;;;2.13;1.65;;;;;;;;;;5076556;28;20208;-59
2023/03/29 05:34:08;;;;;;;2.10;1.80;;;;;;;;;;5076697;28;20263;-59
2023/03/29 05:36:35;;;;;;;1.80;1.70;;;;;;;;;;5077006;28;20219;-61
2023/03/29 05:39:03;;;;;;;1.75;1.65;;;;;;;;;;5075935;28;20651;-61
2023/03/29 05:41:31;;;;;;;2.42;2.00;;;;;;;;;;5076666;28;20596;-60
2023/03/29 05:44:00;;;;;;;1.88;1.77;;;;;;;;;;5075803;28;20192;-60
2023/03/29 05:46:27;;;;;;;1.90;1.67;;;;;;;;;;5077000;28;20235;-60
2023/03/29 05:48:55;;;;;;;2.63;1.85;;;;;;;;;;5076187;28;20204;-60
2023/03/29 05:51:23;;;;;;;2.10;1.90;;;;;;;;;;5076869;28;20207;-60
2023/03/29 05:53:51;;;;;;;1.95;1.75;;;;;;;;;;5076842;28;20232;-60
2023/03/29 05:56:18;;;;;;;2.10;1.90;;;;;;;;;;5076734;28;20256;-60
2023/03/29 05:58:48;;;;;;;1.95;1.75;;;;;;;;;;5077092;28;20583;-60
2023/03/29 06:01:17;;;;;;;2.15;1.95;;;;;;;;;;5077118;28;20204;-60
2023/03/29 06:03:46;;;;;;;1.80;1.70;;;;;;;;;;5077781;28;20261;-60
2023/03/29 06:06:15;;;;;;;2.10;1.83;;;;;;;;;;5077247;28;20580;-60
2023/03/29 06:08:42;;;;;;;1.90;1.75;;;;;;;;;;5076906;28;20667;-60
2023/03/29 06:11:10;;;;;;;3.25;1.83;;;;;;;;;;5076945;28;20269;-60
2023/03/29 06:13:38;;;;;;;2.70;2.00;;;;;;;;;;5076958;28;20507;-60
2023/03/29 06:16:06;;;;;;;1.88;1.73;;;;;;;;;;5076321;28;20660;-60
2023/03/29 06:18:35;;;;;;;2.03;1.77;;;;;;;;;;5077134;28;20201;-60
2023/03/29 06:21:03;;;;;;;2.25;2.00;;;;;;;;;;5077139;28;20211;-61
2023/03/29 06:23:32;;;;;;;1.83;1.60;;;;;;;;;;5077012;28;20228;-60
2023/03/29 06:26:00;;;;;;;1.85;1.70;;;;;;;;;;5077369;28;20197;-60
2023/03/29 06:28:27;;;;;;;1.80;1.70;;;;;;;;;;5078113;28;20235;-60
2023/03/29 06:30:55;;;;;;;1.90;1.70;;;;;;;;;;5077556;28;20204;-60
2023/03/29 06:33:24;;;;;;;2.03;1.92;;;;;;;;;;5077919;28;20615;-61
2023/03/29 06:35:52;;;;;;;2.50;1.70;;;;;;;;;;5077256;28;20300;-60
2023/03/29 06:38:20;;;;;;;2.38;1.63;;;;;;;;;;5076945;28;20295;-60
2023/03/29 06:40:47;;;;;;;2.03;1.83;;;;;;;;;;5076966;28;20299;-60
2023/03/29 06:43:15;;;;;;;1.75;1.65;;;;;;;;;;5077661;28;20271;-62
2023/03/29 06:45:42;;;;;;;2.78;2.00;;;;;;;;;;5077047;28;20258;-61
2023/03/29 06:48:10;;;;;;;2.10;1.90;;;;;;;;;;5077015;28;20562;-59
2023/03/29 06:50:37;;;;;;;2.58;1.80;;;;;;;;;;5077081;28;20204;-61
2023/03/29 06:53:06;;;;;;;2.75;2.00;;;;;;;;;;5077244;28;20227;-59
2023/03/29 06:55:33;;;;;;;1.95;1.65;;;;;;;;;;5076337;28;20247;-61
2023/03/29 06:58:00;;;;;;;3.53;1.75;;;;;;;;;;5076434;28;20212;-61
2023/03/29 07:00:28;;;;;;;2.17;1.92;;;;;;;;;;5075751;28;20208;-60
2023/03/29 07:02:57;;;;;;;2.88;1.80;;;;;;;;;;5076077;28;20212;-61
2023/03/29 07:05:25;;;;;;;2.30;1.80;;;;;;;;;;5075172;28;20204;-59
2023/03/29 07:07:55;;;;;;;2.35;1.90;;;;;;;;;;5075347;28;20208;-59
2023/03/29 07:10:26;;;;;;;2.35;2.00;;;;;;;;;;5077134;28;20473;-61
2023/03/29 07:12:54;;;;;;;2.08;1.80;;;;;;;;;;5076443;28;20211;-60
2023/03/29 07:15:22;;;;;;;2.22;1.85;;;;;;;;;;5076485;28;20204;-60
2023/03/29 07:17:50;;;;;;;1.90;1.70;;;;;;;;;;5076522;28;20277;-60
2023/03/29 07:20:18;;;;;;;1.90;1.67;;;;;;;;;;5075913;28;20243;-60
2023/03/29 07:22:47;;;;;;;2.10;1.88;;;;;;;;;;5076156;28;20200;-60
2023/03/29 07:25:16;;;;;;;1.95;1.75;;;;;;;;;;5076378;28;20211;-60
2023/03/29 07:27:45;;;;;;;2.28;1.50;;;;;;;;;;5076241;28;20210;-59
2023/03/29 07:30:13;;;;;;;1.92;1.63;;;;;;;;;;5076336;28;20274;-60
2023/03/29 07:32:43;;;;;;;2.33;1.70;;;;;;;;;;5076423;28;20216;-60
2023/03/29 07:35:11;;;;;;;2.03;1.70;;;;;;;;;;5075620;28;20255;-60
2023/03/29 07:37:38;;;;;;;2.10;1.90;;;;;;;;;;5075619;28;20266;-60
2023/03/29 07:40:10;;;;;;;2.60;1.70;;;;;;;;;;5075764;28;20210;-60
2023/03/29 07:42:37;;;;;;;2.08;1.75;;;;;;;;;;5075773;28;20244;-60
2023/03/29 07:45:07;;;;;;;2.00;1.77;;;;;;;;;;5075299;28;20501;-60
2023/03/29 07:47:34;;;;;;;1.70;1.60;;;;;;;;;;5075173;28;20258;-60
2023/03/29 07:50:02;;;;;;;2.65;2.05;;;;;;;;;;5074869;28;20378;-60
2023/03/29 07:52:30;;;;;;;3.25;1.80;;;;;;;;;;5074707;28;20638;-60
2023/03/29 07:54:57;;;;;;;1.70;1.60;;;;;;;;;;5075288;28;20267;-60
2023/03/29 07:57:26;;;;;;;1.98;1.75;;;;;;;;;;5074515;28;20248;-60
2023/03/29 07:59:53;;;;;;;1.98;1.77;;;;;;;;;;5075199;28;20240;-60
2023/03/29 08:02:22;;;;;;;2.33;1.85;;;;;;;;;;5074210;28;20208;-60
2023/03/29 08:04:50;;;;;;;1.77;1.60;;;;;;;;;;5075109;28;20573;-60
2023/03/29 08:07:18;;;;;;;2.28;1.80;;;;;;;;;;5074732;28;20204;-60
2023/03/29 08:09:46;;;;;;;1.83;1.73;;;;;;;;;;5074958;28;20204;-60
2023/03/29 08:12:13;;;;;;;1.92;1.73;;;;;;;;;;5084228;28;20261;-60
2023/03/29 08:14:41;;;;;;;2.08;1.58;;;;;;;;;;5077118;28;20377;-60
2023/03/29 08:17:08;;;;;;;1.83;1.45;;;;;;;;;;5074408;28;20204;-60
2023/03/29 08:19:37;;;;;;;1.98;1.77;;;;;;;;;;5074883;28;20611;-60
2023/03/29 08:22:04;;;;;;;2.38;1.70;;;;;;;;;;5075145;28;20204;-60
2023/03/29 08:24:32;;;;;;;1.90;1.75;;;;;;;;;;5074960;28;20703;-60
2023/03/29 08:26:59;;;;;;;1.88;1.70;;;;;;;;;;5074492;28;20230;-60
2023/03/29 08:29:28;;;;;;;2.00;1.80;;;;;;;;;;5074598;28;20211;-60
2023/03/29 08:31:56;;;;;;;1.90;1.65;;;;;;;;;;5075395;28;20212;-60
2023/03/29 08:34:23;;;;;;;1.45;1.35;;;;;;;;;;5075435;28;20642;-60
2023/03/29 08:36:53;;;;;;;2.05;1.85;;;;;;;;;;5075112;28;20214;-60
2023/03/29 08:39:21;;;;;;;1.95;1.73;;;;;;;;;;5075233;28;20210;-60
2023/03/29 08:41:54;;;;;;;1.63;1.50;;;;;;;;;;5074617;28;20356;-60
2023/03/29 08:44:26;;;;;;;2.53;1.77;;;;;;;;;;5074760;28;20596;-60
2023/03/29 08:46:58;;;;;;;1.83;1.63;;;;;;;;;;5075053;28;20212;-60
2023/03/29 08:49:26;;;;;;;1.92;1.67;;;;;;;;;;5074741;28;20494;-60
2023/03/29 08:51:56;;;;;;;2.10;1.48;;;;;;;;;;5074652;28;20200;-60
2023/03/29 08:54:26;;;;;;;2.33;1.90;;;;;;;;;;5075007;28;20323;-60
2023/03/29 08:56:55;;;;;;;2.17;1.85;;;;;;;;;;5074691;28;20236;-60
2023/03/29 08:59:24;;;;;;;1.88;1.52;;;;;;;;;;5074536;28;20204;-60
2023/03/29 09:01:53;;;;;;;1.70;1.60;;;;;;;;;;5074778;28;20215;-60
2023/03/29 09:04:22;;;;;;;3.17;1.70;;;;;;;;;;5074390;28;20649;-60
2023/03/29 09:06:51;;;;;;;1.65;1.48;;;;;;;;;;5073964;28;20650;-60
2023/03/29 09:09:20;;;;;;;2.25;1.75;;;;;;;;;;5074970;28;20212;-60
2023/03/29 09:11:53;;;;;;;1.70;1.60;;;;;;;;;;5074669;28;20222;-60
2023/03/29 09:14:26;;;;;;;1.85;1.70;;;;;;;;;;5074695;28;20624;-60
2023/03/29 09:16:57;;;;;;;1.70;1.60;;;;;;;;;;5074823;28;20205;-61
2023/03/29 09:19:27;;;;;;;1.85;1.70;;;;;;;;;;5076366;28;20219;-62
2023/03/29 09:21:59;;;;;;;1.60;1.50;;;;;;;;;;5078008;28;20239;-62
2023/03/29 09:24:37;;;;;;;1.50;1.40;;;;;;;;;;5078707;28;20227;-60
2023/03/29 09:27:09;;;;;;;2.88;1.50;;;;;;;;;;5078019;28;20215;-61
2023/03/29 09:29:45;;;;;;;3.15;1.88;;;;;;;;;;5077818;28;20204;-62
2023/03/29 09:32:16;;;;;;;1.60;1.50;;;;;;;;;;5077506;28;20278;-61
2023/03/29 09:34:45;;;;;;;1.80;1.38;;;;;;;;;;5077991;28;20234;-61
2023/03/29 09:37:20;;;;;;;1.63;1.52;;;;;;;;;;5077197;28;20595;-62
2023/03/29 09:39:51;;;;;;;1.67;1.58;;;;;;;;;;5077103;28;20204;-62
2023/03/29 09:42:20;;;;;;;1.65;1.55;;;;;;;;;;5077477;28;20266;-62
2023/03/29 09:44:49;;;;;;;1.52;1.42;;;;;;;;;;5076786;28;20475;-61
2023/03/29 09:47:19;;;;;;;1.70;1.30;;;;;;;;;;5077616;28;20238;-62
2023/03/29 09:49:48;;;;;;;1.88;1.50;;;;;;;;;;5077211;28;20215;-62
2023/03/29 09:52:16;;;;;;;1.75;1.65;;;;;;;;;;5077534;28;20204;-62
2023/03/29 09:54:44;;;;;;;1.75;1.50;;;;;;;;;;5077121;28;20224;-62
2023/03/29 09:57:14;;;;;;;1.98;1.50;;;;;;;;;;5077197;28;20502;-62
2023/03/29 09:59:41;;;;;;;1.60;1.50;;;;;;;;;;5076686;28;20204;-61
2023/03/29 10:02:10;;;;;;;1.58;1.45;;;;;;;;;;5076372;28;20726;-62
2023/03/29 10:04:38;;;;;;;1.70;1.55;;;;;;;;;;5076949;28;20202;-61
2023/03/29 10:07:06;;;;;;;1.90;1.52;;;;;;;;;;5077156;28;20215;-61
2023/03/29 10:09:34;;;;;;;1.40;1.30;;;;;;;;;;5076768;28;20212;-60
2023/03/29 10:12:02;;;;;;;1.98;1.52;;;;;;;;;;5076307;28;20205;-60
2023/03/29 10:14:34;;;;;;;2.45;1.50;;;;;;;;;;5076282;28;20278;-60
2023/03/29 10:17:05;;;;;;;2.28;1.38;;;;;;;;;;5076356;28;20208;-60
2023/03/29 10:19:33;;;;;;;1.55;1.33;;;;;;;;;;5076702;28;20204;-60
2023/03/29 10:22:03;;;;;;;2.35;1.27;;;;;;;;;;5075663;28;20305;-60
2023/03/29 10:24:30;;;;;;;1.48;1.38;;;;;;;;;;5075878;28;20197;-60
2023/03/29 10:26:59;;;;;;;1.50;1.40;;;;;;;;;;5075768;28;20212;-60
2023/03/29 10:29:27;;;;;;;1.90;1.48;;;;;;;;;;5074526;28;20767;-61
2023/03/29 10:31:56;;;;;;;2.35;1.35;;;;;;;;;;5075258;28;20242;-61
2023/03/29 10:34:26;;;;;;;1.80;1.40;;;;;;;;;;5075573;28;20224;-61
2023/03/29 10:36:56;;;;;;;1.50;1.40;;;;;;;;;;5076537;28;20467;-61
2023/03/29 10:39:24;;;;;;;1.27;1.17;;;;;;;;;;5075382;28;20204;-61
2023/03/29 10:41:52;;;;;;;1.67;1.30;;;;;;;;;;5075440;28;20204;-61
2023/03/29 10:44:27;;;;;;;1.55;1.40;;;;;;;;;;5074789;28;20299;-62
2023/03/29 10:46:56;;;;;;;2.15;1.33;;;;;;;;;;5075250;28;20287;-62
2023/03/29 10:49:25;;;;;;;2.38;1.75;;;;;;;;;;5073822;28;20204;-62
2023/03/29 10:51:53;;;;;;;1.60;1.50;;;;;;;;;;5074428;28;20799;-61
2023/03/29 10:54:23;;;;;;;1.60;1.45;;;;;;;;;;5074181;28;20216;-61
2023/03/29 10:56:53;;;;;;;1.40;1.20;;;;;;;;;;5075256;28;20240;-61
2023/03/29 10:59:30;;;;;;;1.30;1.20;;;;;;;;;;5075468;28;20211;-61
2023/03/29 11:02:18;;;;;;;1.33;1.23;;;;;;;;;;5075373;28;20207;-61
2023/03/29 11:04:46;;;;;;;1.42;1.20;;;;;;;;;;5074691;28;20643;-61
2023/03/29 11:07:21;;;;;;;2.08;1.35;;;;;;;;;;5075875;28;20275;-61
2023/03/29 11:09:51;;;;;;;1.05;0.95;;;;;;;;;;5075866;28;20212;-61
2023/03/29 11:12:22;;;;;;;1.13;1.02;;;;;;;;;;5075258;28;20212;-61
2023/03/29 11:14:56;;;;;;;1.27;1.10;;;;;;;;;;5075097;28;20228;-61
2023/03/29 11:17:35;;;;;;;1.40;1.30;;;;;;;;;;5074861;28;20257;-61
2023/03/29 11:20:13;;;;;;;1.48;1.30;;;;;;;;;;5075338;28;20204;-61
2023/03/29 11:22:46;;;;;;;1.48;1.10;;;;;;;;;;5074462;28;20219;-61
2023/03/29 11:25:23;;;;;;;1.30;1.20;;;;;;;;;;5074710;28;20208;-61
2023/03/29 11:27:55;;;;;;;1.30;1.20;;;;;;;;;;5073893;28;20758;-61
2023/03/29 11:30:23;;;;;;;1.35;1.25;;;;;;;;;;5074261;28;20204;-61
2023/03/29 11:32:58;;;;;;;2.00;1.40;;;;;;;;;;5074042;28;20207;-61
2023/03/29 11:35:33;;;;;;;1.23;1.13;;;;;;;;;;5074165;28;20259;-61
2023/03/29 11:38:05;;;;;;;1.30;1.20;;;;;;;;;;5073911;28;20203;-61
2023/03/29 11:40:39;;;;;;;1.73;1.50;;;;;;;;;;5073094;28;20212;-61
2023/03/29 11:43:09;;;;;;;2.38;1.20;;;;;;;;;;5073798;28;20204;-61
2023/03/29 11:45:39;;;;;;;1.20;1.10;;;;;;;;;;5074202;28;20208;-61
2023/03/29 11:48:10;;;;;;;1.60;1.20;;;;;;;;;;5073516;28;20296;-61
2023/03/29 11:50:43;;;;;;;1.67;1.35;;;;;;;;;;5073127;28;20646;-61
2023/03/29 11:53:14;;;;;;;1.30;1.20;;;;;;;;;;5073931;28;20307;-61
2023/03/29 11:55:42;;;;;;;2.08;1.30;;;;;;;;;;5072852;28;20477;-61
2023/03/29 11:58:12;;;;;;;1.40;1.30;;;;;;;;;;5074020;28;20542;-61
2023/03/29 12:00:43;;;;;;;1.35;1.20;;;;;;;;;;5073228;28;20204;-61
2023/03/29 12:03:13;;;;;;;1.50;1.00;;;;;;;;;;5072890;28;20207;-61
2023/03/29 12:05:42;;;;;;;1.45;1.35;;;;;;;;;;5073435;28;20576;-61
2023/03/29 12:08:15;;;;;;;1.40;1.23;;;;;;;;;;5074376;28;20212;-62
2023/03/29 12:10:43;;;;;;;1.30;1.20;;;;;;;;;;5073736;28;20232;-61
2023/03/29 12:13:17;;;;;;;1.20;1.10;;;;;;;;;;5073613;28;20219;-61
2023/03/29 12:15:46;;;;;;;1.13;1.10;;;;;;;;;;5074193;28;20228;-61
2023/03/29 12:18:18;;;;;;;1.30;1.15;;;;;;;;;;5073302;28;20204;-61
2023/03/29 12:20:48;;;;;;;1.23;1.13;;;;;;;;;;5072698;28;20216;-61
2023/03/29 12:23:16;;;;;;;1.20;1.10;;;;;;;;;;5072960;28;20235;-61
2023/03/29 12:25:51;;;;;;;0.98;0.88;;;;;;;;;;5073306;28;20201;-61
2023/03/29 12:28:26;;;;;;;1.33;1.23;;;;;;;;;;5073488;28;20218;-61
2023/03/29 12:30:59;;;;;;;1.20;1.10;;;;;;;;;;5073323;28;20204;-61
2023/03/29 12:33:35;;;;;;;0.93;0.93;;;;;;;;;;5073113;28;20617;-61
2023/03/29 12:36:11;;;;;;;1.10;1.00;;;;;;;;;;5072472;28;20223;-62
2023/03/29 12:38:38;;;;;;;1.30;1.20;;;;;;;;;;5072349;28;20599;-61
2023/03/29 12:41:11;;;;;;;1.00;0.90;;;;;;;;;;5073534;28;20206;-61
2023/03/29 12:43:40;;;;;;;1.40;1.23;;;;;;;;;;5073298;28;20240;-61
2023/03/29 12:46:08;;;;;;;0.98;0.95;;;;;;;;;;5073519;28;20240;-61
2023/03/29 12:48:38;;;;;;;1.33;1.00;;;;;;;;;;5073942;28;20234;-61
2023/03/29 12:51:08;;;;;;;1.30;1.10;;;;;;;;;;5073226;28;20204;-61
2023/03/29 12:53:36;;;;;;;0.95;0.90;;;;;;;;;;5075572;28;20208;-61
2023/03/29 12:56:12;;;;;;;1.13;1.02;;;;;;;;;;5076361;28;20231;-61
2023/03/29 12:58:44;;;;;;;1.00;0.90;;;;;;;;;;5076219;28;20206;-61
2023/03/29 13:01:22;;;;;;;1.05;0.98;;;;;;;;;;5076304;28;20204;-61
2023/03/29 13:03:52;;;;;;;1.10;1.00;;;;;;;;;;5076029;28;20212;-61
2023/03/29 13:06:28;;;;;;;0.80;0.80;;;;;;;;;;5075317;28;20196;-61
2023/03/29 13:09:00;;;;;;;1.10;1.00;;;;;;;;;;5075772;28;20615;-61
2023/03/29 13:11:29;;;;;;;1.20;1.10;;;;;;;;;;5076831;28;20204;-61
2023/03/29 13:13:56;;;;;;;0.80;0.80;;;;;;;;;;5076017;28;20231;-61
2023/03/29 13:16:30;;;;;;;0.95;0.90;;;;;;;;;;5075341;28;20523;-61
2023/03/29 13:19:05;;;;;;;1.08;0.90;;;;;;;;;;5076573;28;20215;-61
2023/03/29 13:21:36;;;;;;;1.10;1.00;;;;;;;;;;5075964;28;20302;-61
2023/03/29 13:24:09;;;;;;;0.90;0.90;;;;;;;;;;5076315;28;20204;-61
2023/03/29 13:26:43;;;;;;;0.80;0.80;;;;;;;;;;5076208;28;20209;-62
2023/03/29 13:29:20;;;;;;;1.00;1.00;;;;;;;;;;5076638;28;20211;-61
2023/03/29 13:31:52;;;;;;;1.00;0.85;;;;;;;;;;5076345;28;20207;-61
2023/03/29 13:34:27;;;;;;;1.10;1.00;;;;;;;;;;5076064;28;20246;-61
2023/03/29 13:36:57;;;;;;;0.77;0.77;;;;;;;;;;5075672;28;20235;-61
2023/03/29 13:39:26;;;;;;;1.00;0.90;;;;;;;;;;5076335;28;20595;-61
2023/03/29 13:41:54;;;;;;;0.90;0.90;;;;;;;;;;5077000;28;20319;-61
2023/03/29 13:44:28;;;;;;;1.35;1.00;;;;;;;;;;5075691;28;20239;-60
2023/03/29 13:47:03;;;;;;;0.80;0.80;;;;;;;;;;5076073;28;20208;-60
2023/03/29 13:49:32;;;;;;;1.00;1.00;;;;;;;;;;5076090;28;20203;-60
2023/03/29 13:52:03;;;;;;;0.90;0.90;;;;;;;;;;5076795;28;20215;-60
2023/03/29 13:54:33;;;;;;;1.08;1.00;;;;;;;;;;5076297;28;20205;-60
2023/03/29 13:57:09;;;;;;;1.13;1.00;;;;;;;;;;5075191;28;20247;-62
2023/03/29 13:59:40;;;;;;;0.70;0.70;;;;;;;;;;5075481;28;20212;-62
2023/03/29 14:02:08;;;;;;;1.20;1.00;;;;;;;;;;5075214;28;20299;-62
2023/03/29 14:04:40;;;;;;;0.90;0.90;;;;;;;;;;5075266;28;20212;-61
2023/03/29 14:07:09;;;;;;;1.05;1.00;;;;;;;;;;5075517;28;20208;-61
2023/03/29 14:09:41;;;;;;;1.00;0.90;;;;;;;;;;5076260;28;20204;-61
2023/03/29 14:12:10;;;;;;;1.02;0.90;;;;;;;;;;5075728;28;20269;-62
2023/03/29 14:14:37;;;;;;;0.90;0.90;;;;;;;;;;5075507;28;20295;-62
2023/03/29 14:17:06;;;;;;;0.90;0.90;;;;;;;;;;5076330;28;20228;-61
2023/03/29 14:19:35;;;;;;;0.88;0.82;;;;;;;;;;5074898;28;20215;-62
2023/03/29 14:22:08;;;;;;;1.20;1.00;;;;;;;;;;5075228;28;20592;-61
2023/03/29 14:24:37;;;;;;;1.20;1.10;;;;;;;;;;5076587;28;20204;-61
2023/03/29 14:27:06;;;;;;;0.80;0.80;;;;;;;;;;5074710;28;20207;-61
2023/03/29 14:29:33;;;;;;;1.08;0.98;;;;;;;;;;5075521;28;20212;-61
2023/03/29 14:32:10;;;;;;;0.93;0.93;;;;;;;;;;5074330;28;20207;-61
2023/03/29 14:34:38;;;;;;;1.10;0.80;;;;;;;;;;5074885;28;20204;-61
2023/03/29 14:37:07;;;;;;;0.85;0.85;;;;;;;;;;5074712;28;20266;-61
2023/03/29 14:39:35;;;;;;;1.02;1.00;;;;;;;;;;5075065;28;20227;-61
2023/03/29 14:42:03;;;;;;;0.80;0.75;;;;;;;;;;5075078;28;20200;-61
2023/03/29 14:44:32;;;;;;;0.90;0.90;;;;;;;;;;5074466;28;20204;-61
2023/03/29 14:46:59;;;;;;;0.88;0.88;;;;;;;;;;5074892;28;20200;-61
2023/03/29 14:49:27;;;;;;;0.80;0.80;;;;;;;;;;5076115;28;20210;-61
2023/03/29 14:51:55;;;;;;;0.95;0.93;;;;;;;;;;5076098;28;20527;-61
2023/03/29 14:54:26;;;;;;;1.08;1.00;;;;;;;;;;5075024;28;20204;-61
2023/03/29 14:56:53;;;;;;;0.98;0.90;;;;;;;;;;5074490;28;20239;-61